Time;durP1;ratioP1;P1;durP2;ratioP2;P2;SDS_P1;SDS_P2;PMS_P1;PMS_P2;Temp;Humidity;BMP_temperature;BMP_pressure;BME280_temperature;BME280_humidity;BME280_pressure;Samples;Min_cycle;Max_cycle;Signal;HPM_P1;HPM_P2
2022/03/30 00:00:31;;;;;;;11.80;2.40;;;4.30;99.90;;;;;;4989116;28;20910;-49
2022/03/30 00:02:57;;;;;;;10.30;2.30;;;4.30;99.90;;;;;;4988492;28;20207;-49
2022/03/30 00:05:22;;;;;;;6.80;2.53;;;4.40;99.90;;;;;;4989765;28;20208;-49
2022/03/30 00:07:52;;;;;;;12.33;2.83;;;4.40;99.90;;;;;;4989615;28;20216;-49
2022/03/30 00:10:17;;;;;;;3.80;2.07;;;4.50;99.90;;;;;;4989595;28;20185;-49
2022/03/30 00:12:43;;;;;;;5.60;2.00;;;4.50;99.90;;;;;;4989680;28;20999;-49
2022/03/30 00:15:09;;;;;;;11.07;2.67;;;4.50;99.90;;;;;;4956698;28;20678;-49
2022/03/30 00:17:34;;;;;;;9.93;2.40;;;4.50;99.90;;;;;;4989452;28;20267;-49
2022/03/30 00:20:01;;;;;;;13.43;2.23;;;4.50;99.90;;;;;;4989276;28;20494;-49
2022/03/30 00:22:27;;;;;;;8.77;2.40;;;4.50;99.90;;;;;;4988243;28;20348;-49
2022/03/30 00:24:52;;;;;;;9.03;2.63;;;4.50;99.90;;;;;;4993401;28;20566;-49
2022/03/30 00:27:18;;;;;;;7.00;2.00;;;4.50;99.90;;;;;;4992628;28;20665;-49
2022/03/30 00:29:44;;;;;;;10.80;2.50;;;4.50;99.90;;;;;;4993576;28;20189;-49
2022/03/30 00:32:10;;;;;;;15.67;2.90;;;4.40;99.90;;;;;;4992544;28;20707;-49
2022/03/30 00:34:37;;;;;;;14.47;2.60;;;4.40;99.90;;;;;;4993269;28;20446;-49
2022/03/30 00:37:02;;;;;;;7.50;2.27;;;4.40;99.90;;;;;;4992749;28;20534;-49
2022/03/30 00:39:28;;;;;;;10.37;2.13;;;4.40;99.90;;;;;;4993059;28;21000;-49
2022/03/30 00:41:54;;;;;;;12.67;2.70;;;4.40;99.90;;;;;;4993008;28;20845;-49
2022/03/30 00:44:19;;;;;;;10.27;2.60;;;4.40;99.90;;;;;;4993410;28;20678;-49
2022/03/30 00:46:45;;;;;;;10.13;2.10;;;4.40;99.90;;;;;;4992961;28;20212;-49
2022/03/30 00:49:11;;;;;;;10.03;2.60;;;4.30;99.90;;;;;;4993304;28;20245;-49
2022/03/30 00:51:37;;;;;;;12.90;2.30;;;4.30;99.90;;;;;;4992959;28;20579;-49
2022/03/30 00:54:04;;;;;;;13.23;2.97;;;4.30;99.90;;;;;;4993094;28;20419;-49
2022/03/30 00:56:32;;;;;;;6.50;2.57;;;4.20;99.90;;;;;;4992605;28;20534;-49
2022/03/30 00:59:01;;;;;;;12.67;2.90;;;4.20;99.90;;;;;;4992792;28;20569;-49
2022/03/30 01:01:27;;;;;;;9.67;2.23;;;4.20;99.90;;;;;;4993247;28;20462;-49
2022/03/30 01:03:53;;;;;;;12.63;2.87;;;4.20;99.90;;;;;;4992544;28;20550;-49
2022/03/30 01:06:18;;;;;;;20.77;4.57;;;4.20;99.90;;;;;;4992190;28;20563;-49
2022/03/30 01:08:45;;;;;;;9.93;2.83;;;4.20;99.90;;;;;;4992420;28;20288;-49
2022/03/30 01:11:12;;;;;;;11.50;2.67;;;4.20;99.90;;;;;;4992007;28;20184;-49
2022/03/30 01:13:38;;;;;;;11.17;2.60;;;4.20;99.90;;;;;;4992082;28;20459;-49
2022/03/30 01:16:04;;;;;;;11.30;2.40;;;4.20;99.90;;;;;;4986995;28;20471;-49
2022/03/30 01:18:37;;;;;;;7.13;2.40;;;4.20;99.90;;;;;;4991690;28;20487;-49
2022/03/30 01:21:03;;;;;;;7.83;2.50;;;4.20;99.90;;;;;;4991183;28;20454;-49
2022/03/30 01:23:28;;;;;;;8.13;2.33;;;4.10;99.90;;;;;;4974601;28;20526;-49
2022/03/30 01:25:54;;;;;;;9.20;2.63;;;4.20;99.90;;;;;;4992266;28;20222;-49
2022/03/30 01:28:22;;;;;;;8.93;2.50;;;4.20;99.90;;;;;;4992079;28;20196;-49
2022/03/30 01:33:32;;;;;;;10.43;2.47;;;4.20;99.90;;;;;;4991360;28;20434;-49
2022/03/30 01:35:58;;;;;;;5.50;2.33;;;4.20;99.90;;;;;;4991635;28;20445;-49
2022/03/30 01:38:23;;;;;;;4.03;2.30;;;4.20;99.90;;;;;;4991941;28;20937;-49
2022/03/30 01:40:49;;;;;;;10.50;2.50;;;4.20;99.90;;;;;;4991897;28;20208;-49
2022/03/30 01:43:14;;;;;;;11.47;2.53;;;4.30;99.90;;;;;;4991559;28;20204;-49
2022/03/30 01:45:40;;;;;;;3.77;1.90;;;4.30;99.90;;;;;;4991309;28;20307;-49
2022/03/30 01:48:06;;;;;;;8.17;2.23;;;4.30;99.90;;;;;;4991581;28;20224;-49
2022/03/30 01:50:32;;;;;;;12.37;3.23;;;4.30;99.90;;;;;;4990880;28;20239;-49
2022/03/30 01:52:59;;;;;;;11.63;2.70;;;4.30;99.90;;;;;;4992373;28;20265;-49
2022/03/30 01:55:25;;;;;;;11.90;2.00;;;4.30;99.90;;;;;;4991384;28;20435;-49
2022/03/30 01:57:51;;;;;;;4.80;2.33;;;4.30;99.90;;;;;;4991644;28;20446;-49
2022/03/30 02:00:18;;;;;;;11.50;3.73;;;4.30;99.90;;;;;;4991289;28;20298;-49
2022/03/30 02:02:44;;;;;;;10.03;2.93;;;4.30;99.90;;;;;;4991336;28;20196;-49
2022/03/30 02:05:10;;;;;;;10.67;2.53;;;4.30;99.90;;;;;;4991782;28;21416;-49
2022/03/30 02:07:36;;;;;;;9.17;2.50;;;4.30;99.90;;;;;;4991633;28;20199;-49
2022/03/30 02:10:04;;;;;;;8.03;2.47;;;4.30;99.90;;;;;;4977195;28;20447;-49
2022/03/30 02:12:30;;;;;;;11.20;2.40;;;4.30;99.90;;;;;;4991942;28;20424;-49
2022/03/30 02:14:55;;;;;;;8.10;2.30;;;4.30;99.90;;;;;;4991517;28;20443;-49
2022/03/30 02:17:23;;;;;;;6.77;2.57;;;4.30;99.90;;;;;;4991115;28;20247;-49
2022/03/30 02:19:49;;;;;;;5.33;2.10;;;4.30;99.90;;;;;;4991341;28;20208;-49
2022/03/30 02:22:15;;;;;;;6.80;2.27;;;4.30;99.90;;;;;;4990773;28;20439;-49
2022/03/30 02:24:41;;;;;;;11.67;2.70;;;4.30;99.90;;;;;;4990504;28;20210;-49
2022/03/30 02:27:07;;;;;;;11.13;2.30;;;4.30;99.90;;;;;;4990275;28;20913;-49
2022/03/30 02:29:34;;;;;;;6.83;2.20;;;4.30;99.90;;;;;;4990451;28;20243;-49
2022/03/30 02:32:00;;;;;;;6.93;2.63;;;4.20;99.90;;;;;;4988258;28;21189;-49
2022/03/30 02:34:26;;;;;;;7.40;2.50;;;4.20;99.90;;;;;;4990831;28;20431;-49
2022/03/30 02:36:52;;;;;;;9.30;2.57;;;4.20;99.90;;;;;;4990347;28;20439;-50
2022/03/30 02:39:18;;;;;;;8.30;2.40;;;4.20;99.90;;;;;;4991231;28;20450;-49
2022/03/30 02:41:45;;;;;;;11.77;2.33;;;4.20;99.90;;;;;;4990041;28;20443;-49
2022/03/30 02:44:12;;;;;;;14.20;2.53;;;4.20;99.90;;;;;;4990784;28;20486;-49
2022/03/30 02:46:38;;;;;;;6.37;2.40;;;4.20;99.90;;;;;;4990395;28;20443;-49
2022/03/30 02:49:04;;;;;;;9.40;2.47;;;4.20;99.90;;;;;;4990926;28;20477;-49
2022/03/30 02:51:29;;;;;;;15.53;2.50;;;4.20;99.90;;;;;;4990600;28;20263;-49
2022/03/30 02:53:55;;;;;;;12.20;2.30;;;4.20;99.90;;;;;;4982869;28;20184;-49
2022/03/30 02:56:21;;;;;;;7.93;2.37;;;4.20;99.90;;;;;;4990302;28;20196;-49
2022/03/30 02:58:47;;;;;;;13.67;2.77;;;4.20;99.90;;;;;;4990849;28;20322;-49
2022/03/30 03:01:12;;;;;;;7.63;2.50;;;4.20;99.90;;;;;;4990880;28;20192;-49
2022/03/30 03:03:38;;;;;;;15.47;2.80;;;4.20;99.90;;;;;;4990230;28;20547;-49
2022/03/30 03:06:04;;;;;;;7.40;2.53;;;4.20;99.90;;;;;;4990233;28;20215;-49
2022/03/30 03:08:29;;;;;;;6.53;2.30;;;4.20;99.90;;;;;;4991050;28;20217;-49
2022/03/30 03:10:56;;;;;;;13.27;2.30;;;4.20;99.90;;;;;;4990033;28;20545;-49
2022/03/30 03:13:22;;;;;;;6.57;2.70;;;4.20;99.90;;;;;;4990446;28;20192;-49
2022/03/30 03:15:47;;;;;;;8.63;2.47;;;4.20;99.90;;;;;;4990114;28;20446;-52
2022/03/30 03:18:13;;;;;;;15.13;2.73;;;4.20;99.90;;;;;;4990564;28;20200;-53
2022/03/30 03:20:43;;;;;;;7.30;2.27;;;4.20;99.90;;;;;;4990181;28;20215;-53
2022/03/30 03:23:10;;;;;;;10.80;3.00;;;4.20;99.90;;;;;;4990489;28;20521;-52
2022/03/30 03:25:37;;;;;;;11.43;2.20;;;4.20;99.90;;;;;;4989970;28;20477;-52
2022/03/30 03:28:04;;;;;;;5.97;2.23;;;4.20;99.90;;;;;;4990345;28;20443;-52
2022/03/30 03:30:30;;;;;;;7.53;2.40;;;4.20;99.90;;;;;;4990133;28;20526;-53
2022/03/30 03:32:56;;;;;;;9.80;2.90;;;4.20;99.90;;;;;;4989361;28;20617;-52
2022/03/30 03:35:22;;;;;;;7.43;2.27;;;4.20;99.90;;;;;;4988983;28;20653;-52
2022/03/30 03:37:48;;;;;;;10.90;2.87;;;4.20;99.90;;;;;;4989447;28;20796;-52
2022/03/30 03:40:14;;;;;;;12.60;4.60;;;4.20;99.90;;;;;;4989962;28;20443;-49
2022/03/30 03:42:40;;;;;;;10.40;1.90;;;4.20;99.90;;;;;;4989962;28;20200;-49
2022/03/30 03:45:07;;;;;;;9.37;2.60;;;4.20;99.90;;;;;;4990252;28;20216;-50
2022/03/30 03:47:33;;;;;;;7.73;2.50;;;4.30;99.90;;;;;;4989831;28;20435;-49
2022/03/30 03:49:59;;;;;;;5.63;2.30;;;4.20;99.90;;;;;;4990143;28;20941;-49
2022/03/30 03:52:24;;;;;;;12.17;1.93;;;4.10;99.90;;;;;;4989879;28;20443;-49
2022/03/30 03:54:50;;;;;;;5.50;1.90;;;4.10;1.00;;;;;;4993726;28;20218;-49
2022/03/30 03:57:15;;;;;;;4.50;1.67;;;4.10;1.00;;;;;;4993558;28;20204;-49
2022/03/30 03:59:41;;;;;;;5.23;1.47;;;4.10;1.00;;;;;;4994013;28;20235;-49
2022/03/30 04:02:07;;;;;;;3.87;1.90;;;4.20;1.00;;;;;;4982058;28;20208;-49
2022/03/30 04:04:34;;;;;;;3.00;1.70;;;4.10;1.00;;;;;;4984992;28;20231;-49
2022/03/30 04:06:59;;;;;;;9.83;1.73;;;4.00;1.00;;;;;;4993841;28;20255;-49
2022/03/30 04:09:25;;;;;;;6.93;2.30;;;4.00;1.00;;;;;;4993516;28;20439;-49
2022/03/30 04:11:52;;;;;;;5.63;1.50;;;3.90;1.00;;;;;;4993405;28;20699;-49
2022/03/30 04:14:19;;;;;;;7.80;1.53;;;3.90;1.00;;;;;;4976680;28;20203;-49
2022/03/30 04:16:45;;;;;;;5.07;1.60;;;3.90;1.00;;;;;;4993029;28;20449;-50
2022/03/30 04:19:11;;;;;;;6.77;1.70;;;3.90;1.00;;;;;;4992955;28;20541;-49
2022/03/30 04:21:37;;;;;;;3.97;2.00;;;3.90;1.00;;;;;;4993276;28;20526;-49
2022/03/30 04:24:03;;;;;;;7.43;1.80;;;3.90;1.00;;;;;;4993498;28;20200;-49
2022/03/30 04:26:29;;;;;;;5.40;1.80;;;3.90;1.00;;;;;;4992819;28;20199;-50
2022/03/30 04:28:54;;;;;;;4.50;1.80;;;3.90;1.00;;;;;;4993409;28;20439;-49
2022/03/30 04:31:20;;;;;;;3.30;1.90;;;3.90;1.00;;;;;;4993182;28;20623;-53
2022/03/30 04:33:45;;;;;;;8.07;1.70;;;3.80;1.00;;;;;;4992869;28;20196;-53
2022/03/30 04:36:11;;;;;;;10.10;1.50;;;3.90;1.00;;;;;;4993065;28;20568;-53
2022/03/30 04:38:37;;;;;;;11.73;2.17;;;3.80;1.00;;;;;;4993171;28;20189;-53
2022/03/30 04:41:03;;;;;;;2.97;1.50;;;3.80;1.00;;;;;;4992003;28;20204;-53
2022/03/30 04:43:29;;;;;;;5.57;1.80;;;3.70;1.00;;;;;;4992528;28;20465;-53
2022/03/30 04:45:55;;;;;;;9.37;1.60;;;3.70;1.00;;;;;;4992031;28;20231;-53
2022/03/30 04:48:22;;;;;;;4.37;1.60;;;3.70;1.00;;;;;;4992783;28;20184;-53
2022/03/30 04:50:48;;;;;;;4.83;1.67;;;3.70;1.00;;;;;;4993269;28;20443;-53
2022/03/30 04:53:14;;;;;;;5.40;1.67;;;3.70;1.00;;;;;;4993050;28;21147;-52
2022/03/30 04:55:40;;;;;;;4.07;1.90;;;3.70;1.00;;;;;;4988839;28;20448;-52
2022/03/30 04:58:05;;;;;;;8.57;2.37;;;3.70;1.00;;;;;;4993088;28;20184;-52
2022/03/30 05:00:32;;;;;;;8.00;2.47;;;3.70;1.00;;;;;;4992828;28;20203;-53
2022/03/30 05:02:57;;;;;;;5.70;2.03;;;3.70;1.00;;;;;;4992230;28;20201;-53
2022/03/30 05:05:23;;;;;;;7.10;2.00;;;3.70;46.20;;;;;;4991141;28;20475;-53
2022/03/30 05:07:49;;;;;;;7.60;1.77;;;3.70;57.80;;;;;;4959367;28;20291;-53
2022/03/30 05:10:15;;;;;;;7.63;1.57;;;3.70;67.40;;;;;;4991805;28;20192;-53
2022/03/30 05:12:41;;;;;;;3.10;1.40;;;3.70;99.90;;;;;;4992419;28;20287;-53
2022/03/30 05:15:09;;;;;;;7.80;1.77;;;3.70;99.90;;;;;;4992102;28;20934;-52
2022/03/30 05:17:37;;;;;;;4.87;1.60;;;3.70;99.90;;;;;;4991671;28;20455;-53
2022/03/30 05:20:03;;;;;;;11.13;1.67;;;3.70;99.90;;;;;;4974959;28;20538;-54
2022/03/30 05:22:29;;;;;;;6.33;1.60;;;3.80;95.10;;;;;;4991870;28;20439;-53
2022/03/30 05:24:55;;;;;;;5.37;1.50;;;3.70;99.90;;;;;;4991521;28;20809;-53
2022/03/30 05:27:20;;;;;;;5.67;1.80;;;3.70;99.90;;;;;;4992409;28;20192;-53
2022/03/30 05:29:46;;;;;;;6.03;2.63;;;3.70;99.90;;;;;;4992359;28;20176;-52
2022/03/30 05:32:11;;;;;;;12.10;2.37;;;3.60;99.90;;;;;;4991340;28;20220;-53
2022/03/30 05:34:37;;;;;;;5.23;2.03;;;3.70;99.90;;;;;;4992070;28;20200;-53
2022/03/30 05:37:03;;;;;;;4.10;1.97;;;3.60;99.90;;;;;;4974505;28;20188;-53
2022/03/30 05:39:30;;;;;;;4.30;1.40;;;3.60;99.90;;;;;;4992398;28;20283;-52
2022/03/30 05:41:56;;;;;;;7.30;1.60;;;3.60;99.90;;;;;;4992195;28;20196;-53
2022/03/30 05:44:22;;;;;;;4.80;1.60;;;3.70;99.90;;;;;;4991688;28;20513;-53
2022/03/30 05:46:48;;;;;;;2.57;2.10;;;3.70;99.90;;;;;;4990770;28;20195;-52
2022/03/30 05:49:13;;;;;;;4.60;2.10;;;3.70;99.90;;;;;;4987578;28;20219;-53
2022/03/30 05:51:39;;;;;;;8.47;1.90;;;3.70;99.90;;;;;;4991072;28;20562;-53
2022/03/30 05:54:05;;;;;;;5.60;2.10;;;3.70;99.90;;;;;;4973388;28;20917;-53
2022/03/30 05:59:15;;;;;;;8.43;2.20;;;3.80;99.90;;;;;;4991585;28;20537;-52
2022/03/30 06:01:41;;;;;;;13.80;2.50;;;3.80;99.90;;;;;;4991349;28;20952;-53
2022/03/30 06:04:06;;;;;;;7.37;2.37;;;3.80;99.90;;;;;;4989066;28;20471;-53
2022/03/30 06:06:33;;;;;;;7.33;2.20;;;3.80;99.90;;;;;;4990666;28;20490;-53
2022/03/30 06:08:59;;;;;;;6.00;2.30;;;3.90;99.90;;;;;;4991818;28;20173;-52
2022/03/30 06:11:25;;;;;;;5.73;2.50;;;3.90;99.90;;;;;;4991435;28;20447;-53
2022/03/30 06:13:50;;;;;;;6.40;2.60;;;3.90;99.90;;;;;;4992140;28;20434;-53
2022/03/30 06:16:16;;;;;;;5.73;2.33;;;3.90;99.90;;;;;;4990846;28;20215;-53
2022/03/30 06:18:43;;;;;;;4.73;2.40;;;4.00;99.90;;;;;;4990436;28;20253;-53
2022/03/30 06:21:09;;;;;;;4.57;2.53;;;3.90;99.90;;;;;;4990242;28;20307;-53
2022/03/30 06:23:36;;;;;;;3.93;2.27;;;3.90;99.90;;;;;;4991230;28;20510;-52
2022/03/30 06:26:02;;;;;;;9.27;3.07;;;3.80;99.90;;;;;;4991143;28;20491;-53
2022/03/30 06:28:29;;;;;;;8.47;2.50;;;3.80;99.90;;;;;;4991787;28;20502;-53
2022/03/30 06:30:55;;;;;;;11.53;2.80;;;3.90;99.90;;;;;;4990739;28;20527;-53
2022/03/30 06:33:21;;;;;;;8.30;2.40;;;3.90;99.90;;;;;;4991260;28;20503;-52
2022/03/30 06:35:46;;;;;;;10.83;2.80;;;3.90;99.90;;;;;;4991056;28;20492;-53
2022/03/30 06:38:12;;;;;;;3.83;2.10;;;4.00;99.90;;;;;;4989866;28;20250;-53
2022/03/30 06:40:38;;;;;;;5.67;3.20;;;4.00;99.90;;;;;;4991468;28;20209;-53
2022/03/30 06:43:04;;;;;;;6.40;2.40;;;4.10;99.90;;;;;;4964713;28;20230;-53
2022/03/30 06:45:30;;;;;;;6.53;2.63;;;4.10;99.90;;;;;;4988939;28;20587;-53
2022/03/30 06:47:56;;;;;;;8.90;3.07;;;4.10;99.90;;;;;;4972008;28;20431;-52
2022/03/30 06:50:23;;;;;;;5.10;3.00;;;4.20;99.90;;;;;;4978347;28;20196;-52
2022/03/30 06:52:49;;;;;;;6.07;3.07;;;4.30;99.90;;;;;;4965843;28;20184;-52
2022/03/30 06:55:15;;;;;;;10.47;3.50;;;4.20;99.90;;;;;;4990522;28;20473;-52
2022/03/30 06:57:42;;;;;;;9.57;4.43;;;4.30;99.90;;;;;;4988769;28;20196;-53
2022/03/30 07:00:09;;;;;;;8.70;3.93;;;4.40;99.90;;;;;;4990814;28;20478;-52
2022/03/30 07:02:34;;;;;;;12.13;3.60;;;4.50;99.90;;;;;;4990373;28;20431;-52
2022/03/30 07:05:00;;;;;;;7.40;3.40;;;4.60;99.90;;;;;;4990387;28;20474;-52
2022/03/30 07:10:17;;;;;;;12.40;4.00;;;4.60;99.90;;;;;;4990975;28;20200;-52
2022/03/30 07:12:48;;;;;;;8.77;3.50;;;4.60;99.90;;;;;;4995016;28;20794;-53
2022/03/30 07:15:15;;;;;;;6.00;3.63;;;4.60;99.90;;;;;;4989760;28;20258;-52
2022/03/30 07:17:44;;;;;;;6.80;3.70;;;4.70;99.90;;;;;;4989338;28;20489;-52
2022/03/30 07:20:12;;;;;;;9.63;3.60;;;4.70;99.90;;;;;;4989158;28;20550;-53
2022/03/30 07:22:38;;;;;;;13.20;4.20;;;4.80;99.90;;;;;;4990094;28;20452;-53
2022/03/30 07:25:04;;;;;;;8.40;3.70;;;4.80;99.90;;;;;;4990550;28;20507;-53
2022/03/30 07:27:31;;;;;;;11.43;4.50;;;4.90;99.90;;;;;;4989524;28;20706;-53
2022/03/30 07:29:56;;;;;;;8.50;4.00;;;5.00;44.50;;;;;;4989941;28;20447;-52
2022/03/30 07:32:23;;;;;;;9.83;4.00;;;4.90;2.30;;;;;;4990358;28;20420;-52
2022/03/30 07:34:49;;;;;;;14.93;4.53;;;4.90;1.00;;;;;;4990376;28;20173;-53
2022/03/30 07:37:14;;;;;;;7.50;5.63;;;4.90;1.00;;;;;;4985862;28;20439;-52
2022/03/30 07:39:40;;;;;;;6.80;3.77;;;5.00;1.00;;;;;;4989804;28;20192;-53
